Time;durP1;ratioP1;P1;durP2;ratioP2;P2;SDS_P1;SDS_P2;PMS_P1;PMS_P2;Temp;Humidity;BMP_temperature;BMP_pressure;BME280_temperature;BME280_humidity;BME280_pressure;Samples;Min_cycle;Max_cycle;Signal;HPM_P1;HPM_P2
2023/05/10 00:01:03;;;;;;;3.10;2.90;;;;;;;14.20;71.26;94853.53;5132917;27;20276;-44
2023/05/10 00:03:30;;;;;;;3.97;2.73;;;;;;;14.18;71.15;94855.47;5132620;27;20192;-45
2023/05/10 00:05:56;;;;;;;3.57;3.27;;;;;;;14.18;71.23;94847.75;5133125;27;20603;-42
2023/05/10 00:08:23;;;;;;;3.30;2.80;;;;;;;14.15;71.19;94848.06;5131493;27;20676;-45
2023/05/10 00:10:50;;;;;;;3.13;2.93;;;;;;;14.16;71.16;94849.66;5132936;27;20200;-44
2023/05/10 00:13:17;;;;;;;3.57;3.20;;;;;;;14.15;71.05;94843.72;5132691;27;20180;-42
2023/05/10 00:15:44;;;;;;;3.30;3.10;;;;;;;13.98;71.08;94808.63;5132494;27;20323;-45
2023/05/10 00:18:12;;;;;;;4.10;3.20;;;;;;;14.11;71.28;94833.91;5132846;27;20711;-43
2023/05/10 00:20:39;;;;;;;3.27;3.07;;;;;;;14.09;71.32;94846.91;5132922;27;20188;-44
2023/05/10 00:23:05;;;;;;;3.80;3.50;;;;;;;14.10;71.49;94842.56;5132501;27;20732;-44
2023/05/10 00:25:32;;;;;;;3.23;2.83;;;;;;;14.09;71.70;94840.97;5132184;27;20231;-42
2023/05/10 00:28:01;;;;;;;3.47;3.00;;;;;;;14.06;71.54;94845.44;5132045;27;20241;-43
2023/05/10 00:30:28;;;;;;;3.40;3.10;;;;;;;14.06;71.71;94840.31;5132765;27;20177;-45
2023/05/10 00:32:54;;;;;;;3.03;2.83;;;;;;;14.06;71.73;94839.50;5132468;27;20188;-46
2023/05/10 00:35:23;;;;;;;3.07;2.77;;;;;;;14.03;71.64;94838.06;5132637;27;20188;-46
2023/05/10 00:37:49;;;;;;;3.40;3.13;;;;;;;14.02;71.31;94835.63;5132125;27;20206;-46
2023/05/10 00:40:16;;;;;;;2.80;2.60;;;;;;;14.00;71.89;94840.13;5132146;27;20191;-43
2023/05/10 00:42:43;;;;;;;3.23;3.03;;;;;;;13.97;71.96;94835.28;5131624;27;20241;-46
2023/05/10 00:45:11;;;;;;;3.10;2.90;;;;;;;13.95;71.95;94830.31;5132004;27;20668;-45
2023/05/10 00:47:38;;;;;;;3.40;3.03;;;;;;;13.93;72.00;94824.50;5132534;27;20216;-46
2023/05/10 00:50:06;;;;;;;3.57;3.23;;;;;;;13.92;72.10;94820.34;5132744;27;20180;-44
2023/05/10 00:52:34;;;;;;;3.10;2.90;;;;;;;13.90;72.09;94829.94;5131519;27;20184;-44
2023/05/10 00:55:03;;;;;;;3.13;2.93;;;;;;;13.83;71.95;94816.13;5131488;27;20195;-44
2023/05/10 00:57:30;;;;;;;3.80;3.43;;;;;;;13.87;71.90;94821.78;5131521;27;20275;-44
2023/05/10 00:59:57;;;;;;;3.77;3.47;;;;;;;13.60;71.95;94786.78;5131567;27;20676;-46
2023/05/10 01:02:25;;;;;;;3.50;3.20;;;;;;;13.83;72.15;94813.56;5131438;27;20672;-45
2023/05/10 01:04:52;;;;;;;3.23;2.93;;;;;;;13.81;72.04;94816.25;5131738;27;20188;-45
2023/05/10 01:07:19;;;;;;;3.70;3.40;;;;;;;13.79;72.15;94819.97;5131647;27;20208;-44
2023/05/10 01:09:48;;;;;;;3.73;3.40;;;;;;;13.77;72.15;94817.56;5131510;27;20184;-44
2023/05/10 01:12:15;;;;;;;3.60;3.30;;;;;;;13.76;72.30;94818.50;5131493;27;20192;-45
2023/05/10 01:14:42;;;;;;;3.87;3.43;;;;;;;13.74;72.03;94820.44;5131941;27;20180;-45
2023/05/10 01:17:10;;;;;;;4.00;3.70;;;;;;;13.70;72.29;94811.41;5131124;27;20241;-44
2023/05/10 01:19:37;;;;;;;4.13;3.77;;;;;;;13.71;72.28;94810.44;5131781;27;20184;-44
2023/05/10 01:22:15;;;;;;;3.67;3.37;;;;;;;13.70;72.50;94816.56;5130947;27;20192;-46
2023/05/10 01:25:17;;;;;;;4.70;4.17;;;;;;;13.66;72.42;94801.59;5131373;27;20223;-46
2023/05/10 01:28:17;;;;;;;3.77;3.23;;;;;;;13.68;72.44;94809.94;5067858;28;20194;-46
2023/05/10 01:31:04;;;;;;;3.90;3.60;;;;;;;13.67;72.35;94805.75;5072286;28;20580;-45
2023/05/10 01:33:39;;;;;;;4.33;3.93;;;;;;;13.43;72.33;94760.22;5073132;28;20194;-44
2023/05/10 01:36:12;;;;;;;3.73;3.47;;;;;;;13.59;72.19;94785.16;5071351;28;20255;-44
2023/05/10 01:38:46;;;;;;;4.30;3.90;;;;;;;13.61;72.46;94786.63;5067599;28;20202;-43
2023/05/10 01:41:18;;;;;;;4.10;3.80;;;;;;;13.46;72.41;94768.41;5067285;28;20199;-44
2023/05/10 01:43:54;;;;;;;4.57;3.17;;;;;;;13.36;72.26;94752.31;5067397;28;20278;-44
2023/05/10 01:46:28;;;;;;;3.93;3.60;;;;;;;13.58;72.22;94784.38;5067328;28;20216;-45
2023/05/10 01:48:59;;;;;;;3.90;3.60;;;;;;;13.55;72.16;94785.47;5067150;28;20710;-45
2023/05/10 01:51:30;;;;;;;3.83;3.33;;;;;;;13.53;72.16;94768.59;5067546;28;20812;-45
2023/05/10 01:54:01;;;;;;;4.17;3.87;;;;;;;13.52;71.98;94782.41;5067343;28;20659;-44
2023/05/10 01:56:31;;;;;;;3.67;3.37;;;;;;;13.50;72.00;94785.13;5067904;28;20237;-44
2023/05/10 01:58:59;;;;;;;3.97;3.20;;;;;;;13.49;72.06;94783.53;5067116;28;20186;-42
2023/05/10 02:01:28;;;;;;;3.43;3.13;;;;;;;13.48;71.74;94787.06;5067135;28;20186;-44
2023/05/10 02:03:59;;;;;;;2.90;2.70;;;;;;;13.47;71.65;94776.91;5083256;27;20189;-47
2023/05/10 02:06:27;;;;;;;3.43;3.17;;;;;;;13.35;71.66;94766.13;5130714;27;20211;-44
2023/05/10 02:08:55;;;;;;;3.30;3.03;;;;;;;13.45;71.56;94789.13;5130475;27;20245;-43
2023/05/10 02:11:22;;;;;;;3.50;3.20;;;;;;;13.42;71.50;94774.81;5130286;27;20196;-46
2023/05/10 02:13:51;;;;;;;3.00;2.80;;;;;;;13.29;71.36;94767.50;5130400;27;20199;-44
2023/05/10 02:16:22;;;;;;;2.93;2.73;;;;;;;13.41;71.22;94777.53;5129977;27;20598;-45
2023/05/10 02:18:50;;;;;;;3.00;2.80;;;;;;;13.35;71.34;94771.25;5129879;27;20184;-44
2023/05/10 02:21:18;;;;;;;3.10;2.90;;;;;;;13.39;71.17;94782.03;5130125;27;20474;-44
2023/05/10 02:23:47;;;;;;;3.20;3.00;;;;;;;13.38;70.93;94777.84;5130375;27;20185;-44
2023/05/10 02:26:15;;;;;;;2.80;2.60;;;;;;;13.38;70.69;94790.69;5130042;27;20294;-43
2023/05/10 02:28:44;;;;;;;2.67;2.47;;;;;;;13.35;70.58;94786.66;5130071;27;20184;-44
2023/05/10 02:31:11;;;;;;;3.33;2.60;;;;;;;13.31;70.22;94777.66;5129837;27;20821;-44
2023/05/10 02:33:39;;;;;;;3.13;2.93;;;;;;;13.24;69.84;94774.88;5130929;27;20185;-44
2023/05/10 02:36:08;;;;;;;2.90;2.70;;;;;;;13.24;69.51;94780.00;5130260;28;20211;-43
2023/05/10 02:38:38;;;;;;;3.23;2.93;;;;;;;13.22;69.13;94770.84;5109581;28;20665;-44
2023/05/10 02:41:06;;;;;;;6.00;3.13;;;;;;;13.18;68.65;94779.78;5109563;28;20196;-45
2023/05/10 02:43:34;;;;;;;3.27;2.90;;;;;;;13.15;68.30;94785.22;5109766;28;20693;-41
2023/05/10 02:46:01;;;;;;;3.50;3.30;;;;;;;13.11;67.84;94778.78;5123176;28;20208;-45
2023/05/10 02:48:29;;;;;;;3.77;3.47;;;;;;;13.04;67.68;94768.31;5130598;28;20236;-45
2023/05/10 02:51:01;;;;;;;3.63;3.33;;;;;;;13.02;67.50;94780.50;5131775;28;20653;-44
2023/05/10 02:53:32;;;;;;;4.10;3.50;;;;;;;13.00;67.41;94784.97;5130293;28;20192;-45
2023/05/10 02:56:06;;;;;;;5.07;2.93;;;;;;;12.96;67.25;94781.91;5129500;28;20275;-45
2023/05/10 02:58:33;;;;;;;4.67;3.43;;;;;;;12.92;67.09;94784.91;5130005;28;20187;-45
2023/05/10 03:01:01;;;;;;;5.07;3.30;;;;;;;12.89;67.14;94780.88;5129652;28;20390;-43
2023/05/10 03:03:28;;;;;;;4.53;3.57;;;;;;;12.87;67.26;94782.81;5130169;28;20208;-44
2023/05/10 03:05:55;;;;;;;5.67;3.30;;;;;;;12.85;67.11;94781.31;5129751;28;20649;-42
2023/05/10 03:08:23;;;;;;;4.77;3.33;;;;;;;12.84;67.21;94782.28;5130999;28;20680;-44
2023/05/10 03:11:02;;;;;;;6.43;4.20;;;;;;;12.78;67.11;94771.66;5130111;28;20274;-46
2023/05/10 03:13:37;;;;;;;3.60;3.10;;;;;;;12.79;67.15;94780.16;5129838;28;20188;-44
2023/05/10 03:16:11;;;;;;;3.77;3.47;;;;;;;12.77;67.06;94777.72;5129659;28;20192;-45
2023/05/10 03:18:45;;;;;;;4.07;3.40;;;;;;;12.76;66.89;94781.25;5130046;28;20276;-45
2023/05/10 03:21:13;;;;;;;4.47;4.07;;;;;;;12.75;66.84;94774.53;5130292;28;20218;-44
2023/05/10 03:23:44;;;;;;;4.87;3.47;;;;;;;12.73;66.76;94778.19;5129976;28;20241;-46
2023/05/10 03:26:15;;;;;;;6.33;3.60;;;;;;;12.70;66.61;94769.03;5129517;28;20222;-45
2023/05/10 03:28:44;;;;;;;3.77;3.47;;;;;;;12.73;66.57;94784.13;5129206;28;20177;-45
2023/05/10 03:31:13;;;;;;;3.87;3.57;;;;;;;12.72;66.52;94791.97;5130059;28;20674;-45
2023/05/10 03:33:47;;;;;;;4.13;3.47;;;;;;;12.73;66.60;94784.13;5129512;28;20549;-43
2023/05/10 03:36:14;;;;;;;3.40;3.00;;;;;;;12.73;66.25;94780.75;5129381;28;20407;-41
2023/05/10 03:38:41;;;;;;;4.00;3.70;;;;;;;12.74;66.09;94793.44;5129638;28;20625;-42
2023/05/10 03:41:08;;;;;;;4.23;3.53;;;;;;;12.73;66.02;94793.56;5129686;28;20318;-43
2023/05/10 03:43:35;;;;;;;3.67;3.37;;;;;;;12.72;65.91;94792.78;5132877;27;20188;-43
2023/05/10 03:46:04;;;;;;;3.50;3.20;;;;;;;12.73;65.97;94796.94;5133288;27;20189;-46
2023/05/10 03:48:31;;;;;;;5.37;3.07;;;;;;;12.72;65.85;94797.91;5133292;27;20200;-44
2023/05/10 03:50:58;;;;;;;4.00;3.50;;;;;;;12.72;65.69;94804.81;5132733;27;20196;-43
2023/05/10 03:53:25;;;;;;;4.03;3.30;;;;;;;12.72;65.52;94807.38;5133455;27;20185;-43
2023/05/10 03:55:52;;;;;;;3.70;3.40;;;;;;;12.72;65.32;94807.38;5132858;27;20538;-44
2023/05/10 03:58:19;;;;;;;4.30;3.50;;;;;;;12.72;65.29;94808.16;5133008;27;20398;-46
2023/05/10 04:00:46;;;;;;;6.40;3.90;;;;;;;12.74;65.07;94811.41;5132746;27;20268;-44
2023/05/10 04:03:14;;;;;;;3.80;3.50;;;;;;;12.60;65.16;94788.81;5133044;27;20540;-46
2023/05/10 04:05:41;;;;;;;3.70;3.37;;;;;;;12.75;65.18;94815.59;5132870;27;20184;-45
2023/05/10 04:08:08;;;;;;;4.27;3.87;;;;;;;12.73;64.83;94812.34;5133058;27;20277;-45
2023/05/10 04:10:35;;;;;;;3.93;3.40;;;;;;;12.79;64.77;94826.38;5133040;27;20184;-45
2023/05/10 04:13:01;;;;;;;3.33;2.90;;;;;;;12.81;64.60;94827.00;5131806;27;20189;-43
2023/05/10 04:15:28;;;;;;;5.77;3.43;;;;;;;12.83;64.49;94827.69;5132842;27;20198;-42
2023/05/10 04:17:55;;;;;;;5.10;3.27;;;;;;;12.84;64.43;94816.44;5132780;27;20192;-44
2023/05/10 04:20:23;;;;;;;3.60;3.30;;;;;;;12.71;64.47;94805.75;5132283;27;20198;-43
2023/05/10 04:22:50;;;;;;;3.90;3.60;;;;;;;12.82;64.32;94818.34;5132055;27;20580;-46
2023/05/10 04:25:17;;;;;;;4.33;3.67;;;;;;;12.86;64.08;94831.69;5132658;27;20936;-44
2023/05/10 04:27:44;;;;;;;3.83;3.47;;;;;;;12.89;64.00;94818.56;5131538;27;20212;-46
2023/05/10 04:30:11;;;;;;;3.73;3.43;;;;;;;12.86;64.16;94814.53;5142563;27;20179;-43
2023/05/10 04:32:38;;;;;;;3.87;3.47;;;;;;;12.85;64.11;94822.41;5133726;27;20256;-43
2023/05/10 04:35:05;;;;;;;4.07;3.60;;;;;;;12.83;63.86;94819.97;5132062;27;20189;-44
2023/05/10 04:37:33;;;;;;;3.87;3.20;;;;;;;12.77;63.92;94802.59;5131836;27;20315;-44
2023/05/10 04:40:00;;;;;;;4.37;3.63;;;;;;;12.83;63.96;94802.00;5131757;27;20185;-45
2023/05/10 04:42:27;;;;;;;5.07;3.20;;;;;;;12.94;63.92;94816.38;5131802;27;20180;-46
2023/05/10 04:44:54;;;;;;;5.87;3.40;;;;;;;12.96;64.12;94824.75;5131551;27;20191;-43
2023/05/10 04:47:21;;;;;;;4.13;3.73;;;;;;;12.99;64.09;94838.06;5132387;27;20219;-44
2023/05/10 04:49:48;;;;;;;3.67;3.37;;;;;;;12.88;63.84;94802.38;5132296;27;20635;-44
2023/05/10 04:52:17;;;;;;;3.93;3.30;;;;;;;13.06;63.58;94826.25;5134158;27;20649;-48
2023/05/10 04:54:45;;;;;;;4.40;3.70;;;;;;;13.07;63.69;94822.72;5131493;27;20337;-45
2023/05/10 04:57:12;;;;;;;3.37;3.17;;;;;;;13.16;63.65;94830.47;5131456;27;20192;-46
2023/05/10 04:59:38;;;;;;;4.07;3.03;;;;;;;13.05;63.52;94811.00;5130874;27;20664;-46
2023/05/10 05:02:06;;;;;;;3.40;3.17;;;;;;;13.06;63.50;94798.00;5131228;27;20184;-45
2023/05/10 05:04:33;;;;;;;3.70;3.40;;;;;;;13.31;63.42;94826.44;5131849;27;20192;-44
2023/05/10 05:07:00;;;;;;;4.03;3.67;;;;;;;13.38;63.27;94827.44;5131817;27;20242;-44
2023/05/10 05:09:26;;;;;;;6.10;2.93;;;;;;;13.42;62.88;94833.88;5132485;27;20184;-45
2023/05/10 05:11:55;;;;;;;4.80;3.87;;;;;;;13.49;63.07;94834.09;5131436;27;20184;-44
2023/05/10 05:14:22;;;;;;;4.57;3.80;;;;;;;13.77;84.35;94832.97;5132003;27;20180;-43
2023/05/10 05:16:49;;;;;;;7.83;4.23;;;;;;;14.29;95.03;94826.88;5131907;27;20181;-46
2023/05/10 05:19:16;;;;;;;7.87;4.23;;;;;;;14.64;90.54;94835.38;5132095;27;20192;-44
2023/05/10 05:21:43;;;;;;;6.37;4.40;;;;;;;14.75;85.37;94838.41;5132037;27;20211;-43
2023/05/10 05:24:11;;;;;;;8.37;3.83;;;;;;;14.77;80.11;94835.69;5131504;27;20228;-44
2023/05/10 05:26:37;;;;;;;6.63;4.13;;;;;;;14.77;77.15;94839.06;5131305;27;20192;-42
2023/05/10 05:29:05;;;;;;;6.37;4.60;;;;;;;14.80;75.00;94846.44;5132149;27;20273;-44
2023/05/10 05:31:32;;;;;;;4.37;3.97;;;;;;;14.81;73.35;94847.28;5131587;27;20204;-44
2023/05/10 05:33:59;;;;;;;4.70;4.30;;;;;;;14.81;72.22;94852.44;5132207;27;20653;-44
2023/05/10 05:36:26;;;;;;;4.93;4.53;;;;;;;14.61;71.44;94833.91;5132641;27;20204;-44
2023/05/10 05:38:52;;;;;;;6.13;4.10;;;;;;;14.80;70.65;94858.53;5131526;27;20681;-46
2023/05/10 05:41:19;;;;;;;5.23;3.97;;;;;;;14.77;69.80;94853.72;5131448;27;20633;-46
2023/05/10 05:43:46;;;;;;;5.27;4.33;;;;;;;14.75;68.98;94855.63;5131119;27;20660;-45
2023/05/10 05:46:14;;;;;;;4.87;4.03;;;;;;;14.75;68.19;94866.72;5130908;27;20249;-46
2023/05/10 05:48:41;;;;;;;6.33;4.10;;;;;;;14.75;67.85;94860.78;5131211;27;20700;-42
2023/05/10 05:51:08;;;;;;;5.53;3.87;;;;;;;14.73;67.23;94863.53;5130725;27;20196;-44
2023/05/10 05:53:34;;;;;;;5.13;4.37;;;;;;;14.72;66.86;94869.63;5131107;27;20550;-42
2023/05/10 05:56:01;;;;;;;6.27;4.30;;;;;;;14.66;66.40;94857.38;5131101;27;20192;-45
2023/05/10 05:58:28;;;;;;;4.77;4.37;;;;;;;14.70;66.07;94871.56;5130801;27;20188;-45
2023/05/10 06:00:55;;;;;;;4.47;4.07;;;;;;;14.70;65.87;94879.28;5131246;27;20187;-47
2023/05/10 06:03:23;;;;;;;9.40;4.80;;;;;;;14.70;65.53;94863.03;5130572;27;20669;-45
2023/05/10 06:05:50;;;;;;;5.13;4.20;;;;;;;14.66;65.62;94852.25;5129958;27;20199;-44
2023/05/10 06:08:16;;;;;;;6.70;4.67;;;;;;;14.76;65.11;94870.91;5130641;27;20208;-46
2023/05/10 06:10:44;;;;;;;4.47;3.97;;;;;;;14.78;65.09;94874.16;5130852;27;20188;-45
2023/05/10 06:13:11;;;;;;;5.13;4.63;;;;;;;14.75;64.78;94864.16;5130576;27;20565;-44
2023/05/10 06:15:38;;;;;;;5.23;4.80;;;;;;;14.83;64.68;94883.97;5130713;27;20184;-44
2023/05/10 06:18:05;;;;;;;5.23;4.73;;;;;;;14.86;64.48;94880.28;5130334;27;20189;-45
2023/05/10 06:20:33;;;;;;;5.27;4.77;;;;;;;14.90;64.23;94876.41;5130477;27;20283;-45
2023/05/10 06:23:00;;;;;;;6.83;4.97;;;;;;;14.91;64.16;94881.41;5130298;27;20276;-45
2023/05/10 06:25:27;;;;;;;5.37;4.87;;;;;;;14.94;63.88;94883.66;5130323;27;20277;-45
2023/05/10 06:27:57;;;;;;;6.53;5.47;;;;;;;14.99;63.88;94885.75;5130563;27;20231;-44
2023/05/10 06:30:27;;;;;;;5.90;4.93;;;;;;;15.02;63.73;94888.78;5130562;27;20188;-45
2023/05/10 06:32:54;;;;;;;6.10;5.27;;;;;;;15.07;63.51;94885.78;5129992;27;20641;-44
2023/05/10 06:35:21;;;;;;;5.63;5.00;;;;;;;15.11;63.36;94887.06;5130515;27;20252;-48
2023/05/10 06:37:49;;;;;;;5.10;4.67;;;;;;;15.16;63.34;94887.38;5130150;28;20200;-43
2023/05/10 06:40:16;;;;;;;7.37;4.93;;;;;;;15.21;63.16;94900.56;5130317;28;20237;-46
2023/05/10 06:42:44;;;;;;;7.37;5.37;;;;;;;15.24;63.12;94889.13;5130719;28;20195;-46
2023/05/10 06:45:12;;;;;;;6.10;5.50;;;;;;;15.29;62.57;94882.53;5129945;28;20192;-45
2023/05/10 06:47:39;;;;;;;6.20;5.60;;;;;;;15.31;62.61;94888.31;5129919;28;20212;-47
2023/05/10 06:50:07;;;;;;;8.03;5.50;;;;;;;15.34;62.25;94884.63;5130133;28;20184;-45
2023/05/10 06:52:33;;;;;;;6.33;5.70;;;;;;;15.36;62.10;94898.16;5130123;28;20204;-47
2023/05/10 06:55:02;;;;;;;8.63;5.53;;;;;;;15.36;61.90;94880.09;5130007;28;20657;-46
2023/05/10 06:57:29;;;;;;;5.20;4.67;;;;;;;15.41;61.69;94895.09;5131294;28;20191;-47
2023/05/10 06:59:56;;;;;;;6.53;5.63;;;;;;;15.34;61.93;94887.22;5130850;28;20189;-41
2023/05/10 07:02:23;;;;;;;5.63;5.10;;;;;;;15.45;61.57;94898.94;5129705;28;20202;-47
2023/05/10 07:04:51;;;;;;;7.70;5.87;;;;;;;15.45;61.43;94907.47;5129648;28;20195;-44
2023/05/10 07:07:18;;;;;;;6.93;5.93;;;;;;;15.44;61.18;94898.16;5129787;28;20232;-43
2023/05/10 07:09:45;;;;;;;6.03;5.53;;;;;;;15.43;61.21;94900.91;5129761;28;20622;-42
2023/05/10 07:12:13;;;;;;;6.43;5.53;;;;;;;15.29;61.03;94879.16;5129611;28;20196;-43
2023/05/10 07:14:40;;;;;;;6.73;5.20;;;;;;;15.26;60.83;94869.97;5129755;28;20621;-42
2023/05/10 07:17:07;;;;;;;8.70;5.70;;;;;;;15.46;60.78;94895.44;5130710;27;20252;-43
2023/05/10 07:19:34;;;;;;;5.90;5.37;;;;;;;15.49;60.62;94903.63;5133914;27;20550;-45
2023/05/10 07:22:00;;;;;;;6.03;5.43;;;;;;;15.49;60.67;94901.03;5133820;27;20196;-43
2023/05/10 07:24:27;;;;;;;6.40;5.80;;;;;;;15.50;60.39;94901.84;5134056;27;20232;-45
2023/05/10 07:26:54;;;;;;;8.43;6.60;;;;;;;15.53;60.41;94915.22;5133485;27;20892;-45
2023/05/10 07:29:22;;;;;;;7.77;6.07;;;;;;;15.50;60.26;94912.16;5133496;27;20264;-42
2023/05/10 07:31:49;;;;;;;7.43;5.87;;;;;;;15.50;60.30;94904.41;5133590;27;20246;-43
2023/05/10 07:34:16;;;;;;;8.70;5.57;;;;;;;15.56;60.25;94914.09;5133864;27;20189;-46
2023/05/10 07:36:43;;;;;;;11.10;5.77;;;;;;;15.28;60.04;94872.38;5133466;27;20585;-46
2023/05/10 07:39:10;;;;;;;8.57;5.83;;;;;;;15.50;60.14;94894.94;5133693;27;20756;-44
2023/05/10 07:41:37;;;;;;;7.03;6.33;;;;;;;15.60;60.07;94919.75;5133493;27;20200;-45
2023/05/10 07:44:04;;;;;;;7.57;6.37;;;;;;;15.62;59.95;94915.22;5133675;27;20192;-47
2023/05/10 07:46:32;;;;;;;8.17;6.20;;;;;;;15.54;59.80;94903.97;5133966;27;20195;-44
2023/05/10 07:48:59;;;;;;;6.50;5.90;;;;;;;15.67;59.81;94910.38;5133245;27;20201;-45
2023/05/10 07:51:27;;;;;;;6.77;6.07;;;;;;;15.67;59.75;94910.38;5133399;27;20181;-45
2023/05/10 07:53:54;;;;;;;8.23;5.77;;;;;;;15.72;59.52;94915.88;5133106;27;20207;-45
2023/05/10 07:56:24;;;;;;;7.23;6.53;;;;;;;15.74;59.44;94919.91;5133173;27;20187;-47
2023/05/10 07:58:51;;;;;;;7.43;6.67;;;;;;;15.75;59.39;94913.75;5132922;27;20185;-44
2023/05/10 08:01:18;;;;;;;7.33;6.07;;;;;;;15.62;59.46;94889.44;5133434;27;20225;-44
2023/05/10 08:03:47;;;;;;;6.70;5.90;;;;;;;15.83;59.13;94919.88;5133135;27;20180;-45
2023/05/10 08:06:15;;;;;;;9.30;6.63;;;;;;;15.88;59.06;94925.34;5133233;27;20192;-44
2023/05/10 08:08:42;;;;;;;10.07;6.70;;;;;;;15.91;58.94;94925.84;5132854;27;20224;-46
2023/05/10 08:11:09;;;;;;;7.57;6.77;;;;;;;15.86;58.61;94912.63;5132990;27;20189;-42
2023/05/10 08:13:36;;;;;;;7.67;6.60;;;;;;;16.00;58.72;94924.03;5132792;27;20192;-44
2023/05/10 08:16:03;;;;;;;7.27;6.63;;;;;;;16.04;58.48;94926.13;5133283;27;20622;-45
2023/05/10 08:18:29;;;;;;;7.67;6.87;;;;;;;16.11;58.40;94918.53;5132893;27;20188;-45
2023/05/10 08:20:58;;;;;;;7.97;6.23;;;;;;;16.17;57.99;94920.44;5132959;27;20189;-46
2023/05/10 08:23:24;;;;;;;7.57;6.80;;;;;;;16.26;57.82;94919.44;5132667;27;20188;-46
2023/05/10 08:25:51;;;;;;;8.50;6.63;;;;;;;16.35;57.74;94919.41;5132388;27;20238;-46
2023/05/10 08:28:18;;;;;;;7.37;6.67;;;;;;;16.45;57.70;94933.75;5131594;27;20272;-46
2023/05/10 08:30:47;;;;;;;7.40;6.70;;;;;;;16.56;57.36;94929.97;5132339;27;20192;-45
2023/05/10 08:33:14;;;;;;;7.70;6.43;;;;;;;16.66;57.21;94927.97;5132666;27;20196;-46
2023/05/10 08:35:41;;;;;;;6.57;5.93;;;;;;;16.78;57.17;94937.00;5132153;27;20199;-46
2023/05/10 08:38:09;;;;;;;7.17;6.47;;;;;;;16.87;56.95;94929.19;5132559;27;20215;-48
2023/05/10 08:40:38;;;;;;;9.47;6.10;;;;;;;16.79;56.70;94907.59;5132457;27;20196;-44
2023/05/10 08:43:07;;;;;;;8.47;6.30;;;;;;;17.01;56.71;94936.22;5132466;27;20188;-45
2023/05/10 08:45:37;;;;;;;8.57;6.23;;;;;;;17.03;56.61;94931.69;5132381;27;20249;-47
2023/05/10 08:48:06;;;;;;;6.80;5.97;;;;;;;17.07;56.56;94929.56;5133644;27;20669;-44
2023/05/10 08:50:36;;;;;;;7.17;6.47;;;;;;;17.12;56.33;94929.84;5135189;27;20211;-44
2023/05/10 08:53:06;;;;;;;6.60;6.00;;;;;;;17.17;56.30;94930.13;5133518;27;20188;-45
2023/05/10 08:55:36;;;;;;;7.00;6.30;;;;;;;17.24;56.19;94931.06;5133180;27;20184;-46
2023/05/10 08:58:03;;;;;;;6.53;5.93;;;;;;;17.30;56.04;94928.56;5133873;27;20201;-44
2023/05/10 09:00:30;;;;;;;9.10;6.37;;;;;;;17.34;55.94;94913.53;5136762;27;20656;-47
2023/05/10 09:02:58;;;;;;;6.90;6.20;;;;;;;17.38;55.87;94907.03;5134725;27;20184;-47
2023/05/10 09:05:25;;;;;;;6.63;6.03;;;;;;;17.59;55.83;94929.66;5132171;27;20195;-46
2023/05/10 09:07:52;;;;;;;7.50;6.20;;;;;;;17.67;55.58;94931.38;5132200;27;20212;-47
2023/05/10 09:10:20;;;;;;;6.73;6.13;;;;;;;17.71;55.54;94930.84;5131767;27;20216;-47
2023/05/10 09:12:49;;;;;;;6.23;5.53;;;;;;;17.69;55.44;94924.22;5132331;27;20195;-46
2023/05/10 09:15:19;;;;;;;7.60;6.07;;;;;;;17.76;55.31;94931.16;5132249;27;20207;-45
2023/05/10 09:17:46;;;;;;;8.87;6.07;;;;;;;17.75;55.35;94926.16;5132245;27;20192;-45
2023/05/10 09:20:13;;;;;;;6.30;5.63;;;;;;;17.80;55.13;94924.66;5131605;27;20623;-42
2023/05/10 09:22:40;;;;;;;5.80;5.30;;;;;;;17.83;55.21;94928.66;5131639;27;20661;-46
2023/05/10 09:25:09;;;;;;;8.07;5.97;;;;;;;17.87;55.20;94916.16;5131667;27;20250;-44
2023/05/10 09:27:36;;;;;;;6.63;5.67;;;;;;;17.68;54.97;94889.81;5131036;27;20192;-47
2023/05/10 09:30:06;;;;;;;6.57;5.97;;;;;;;17.93;55.05;94934.38;5132071;27;20230;-49
2023/05/10 09:32:40;;;;;;;6.33;5.53;;;;;;;17.98;54.78;94928.69;5131268;27;20199;-47
2023/05/10 09:35:10;;;;;;;6.93;6.17;;;;;;;17.95;54.72;94909.13;5132572;27;20191;-46
2023/05/10 09:37:36;;;;;;;6.23;5.70;;;;;;;17.97;54.57;94930.47;5131692;27;20210;-48
2023/05/10 09:40:07;;;;;;;5.87;5.37;;;;;;;17.98;54.46;94941.63;5131410;27;20187;-47
2023/05/10 09:42:34;;;;;;;6.77;6.17;;;;;;;17.87;54.46;94916.16;5131317;27;20226;-46
2023/05/10 09:45:04;;;;;;;6.70;6.00;;;;;;;17.89;54.44;94919.41;5131213;27;20185;-45
2023/05/10 09:47:33;;;;;;;6.90;6.30;;;;;;;17.78;54.22;94905.88;5131189;27;20188;-44
2023/05/10 09:50:03;;;;;;;7.77;6.20;;;;;;;17.88;54.25;94920.38;5130976;27;20216;-45
2023/05/10 09:52:31;;;;;;;8.60;6.20;;;;;;;17.89;54.20;94927.16;5130870;27;20184;-44
2023/05/10 09:54:58;;;;;;;7.27;6.07;;;;;;;17.89;53.91;94924.56;5131111;27;20226;-46
2023/05/10 09:57:26;;;;;;;7.30;5.93;;;;;;;17.88;53.99;94908.25;5130615;27;20220;-45
2023/05/10 09:59:54;;;;;;;6.27;5.70;;;;;;;17.90;53.75;94906.28;5130727;27;20227;-46
2023/05/10 10:02:29;;;;;;;9.57;5.63;;;;;;;17.98;53.65;94901.00;5130601;27;20650;-43
2023/05/10 10:04:56;;;;;;;7.60;5.67;;;;;;;18.05;53.41;94912.28;5130825;27;20219;-45
2023/05/10 10:07:25;;;;;;;6.07;5.57;;;;;;;18.13;53.51;94900.19;5130691;27;20192;-47
2023/05/10 10:09:52;;;;;;;6.40;5.57;;;;;;;18.15;53.03;94901.66;5130997;27;20311;-45
2023/05/10 10:12:20;;;;;;;6.50;5.90;;;;;;;18.28;52.90;94903.59;5130585;27;20188;-45
2023/05/10 10:14:49;;;;;;;5.83;5.27;;;;;;;18.35;52.82;94896.72;5130660;27;20649;-46
2023/05/10 10:17:16;;;;;;;7.10;5.37;;;;;;;18.35;52.68;94875.19;5130850;27;20187;-43
2023/05/10 10:19:46;;;;;;;10.03;6.50;;;;;;;18.50;52.45;94897.50;5131057;27;20200;-44
2023/05/10 10:22:12;;;;;;;6.60;6.00;;;;;;;18.63;52.29;94906.41;5130815;27;20192;-44
2023/05/10 10:24:40;;;;;;;8.03;5.63;;;;;;;18.49;52.06;94867.41;5130408;27;20228;-44
2023/05/10 10:27:22;;;;;;;8.40;5.87;;;;;;;18.74;51.85;94908.56;5130395;27;20184;-42
2023/05/10 10:30:00;;;;;;;9.87;5.87;;;;;;;18.73;51.88;94888.81;5130396;27;20208;-43
2023/05/10 10:32:34;;;;;;;5.67;5.10;;;;;;;18.79;51.91;94898.47;5130018;27;20216;-43
2023/05/10 10:35:03;;;;;;;6.13;5.27;;;;;;;18.82;51.88;94903.25;5130483;27;20575;-46
2023/05/10 10:37:50;;;;;;;6.37;5.47;;;;;;;18.78;51.81;94902.84;5130468;27;20191;-44
2023/05/10 10:40:27;;;;;;;5.87;5.30;;;;;;;18.76;51.86;94901.41;5130372;28;20203;-43
2023/05/10 10:42:55;;;;;;;5.57;5.00;;;;;;;18.67;51.87;94895.50;5130031;28;20280;-47
2023/05/10 10:45:23;;;;;;;5.93;5.13;;;;;;;18.63;51.81;94906.41;5130313;28;20261;-46
2023/05/10 10:47:54;;;;;;;7.03;5.27;;;;;;;18.58;51.80;94908.75;5130393;28;20576;-46
2023/05/10 10:50:22;;;;;;;6.13;5.23;;;;;;;18.52;51.75;94918.84;5130196;28;20894;-45
2023/05/10 10:52:52;;;;;;;5.50;5.00;;;;;;;18.44;51.92;94903.41;5132473;27;20192;-46
2023/05/10 10:55:22;;;;;;;6.10;5.53;;;;;;;18.44;51.94;94905.19;5134582;27;20202;-45
2023/05/10 10:57:51;;;;;;;5.40;4.60;;;;;;;18.44;51.82;94897.44;5134305;27;20199;-45
2023/05/10 11:00:27;;;;;;;8.07;5.03;;;;;;;18.46;51.96;94900.63;5134338;27;20196;-45
2023/05/10 11:02:58;;;;;;;7.43;4.83;;;;;;;18.47;51.86;94905.63;5135304;27;20265;-45
2023/05/10 11:05:47;;;;;;;5.20;4.80;;;;;;;18.50;51.78;94905.25;5134272;27;20192;-46
2023/05/10 11:08:19;;;;;;;6.77;4.70;;;;;;;18.52;51.77;94911.09;5134516;27;20576;-45
2023/05/10 11:11:06;;;;;;;5.67;4.93;;;;;;;18.54;51.77;94903.13;5134343;27;20176;-44
2023/05/10 11:13:34;;;;;;;9.80;5.37;;;;;;;18.59;51.67;94910.34;5134056;27;20195;-44
2023/05/10 11:16:12;;;;;;;8.27;5.50;;;;;;;18.53;51.44;94891.16;5133956;27;20220;-47
2023/05/10 11:18:39;;;;;;;6.67;4.70;;;;;;;18.67;51.55;94903.28;5133979;27;20661;-45
2023/05/10 11:21:10;;;;;;;5.40;4.90;;;;;;;18.68;51.50;94897.09;5134067;27;20586;-47
2023/05/10 11:23:50;;;;;;;5.23;4.50;;;;;;;18.78;51.43;94899.41;5133643;27;20184;-46
2023/05/10 11:26:17;;;;;;;6.63;4.70;;;;;;;18.82;51.35;94894.69;5134029;27;20188;-47
2023/05/10 11:28:45;;;;;;;9.27;5.50;;;;;;;18.91;51.33;94896.16;5133856;27;20219;-45
2023/05/10 11:31:14;;;;;;;6.70;4.60;;;;;;;18.94;51.10;94894.00;5133423;27;20192;-45
2023/05/10 11:33:44;;;;;;;6.00;4.53;;;;;;;19.03;51.10;94900.69;5133973;27;20268;-45
2023/05/10 11:36:15;;;;;;;6.97;4.50;;;;;;;19.05;50.96;94892.75;5133717;27;20245;-46
2023/05/10 11:38:41;;;;;;;6.27;4.53;;;;;;;19.07;50.84;94895.94;5133516;27;20188;-46
2023/05/10 11:41:11;;;;;;;4.77;4.37;;;;;;;19.07;50.93;94892.53;5133704;27;20183;-47